Time;durP1;ratioP1;P1;durP2;ratioP2;P2;SDS_P1;SDS_P2;PMS_P1;PMS_P2;Temp;Humidity;BMP_temperature;BMP_pressure;BME280_temperature;BME280_humidity;BME280_pressure;Samples;Min_cycle;Max_cycle;Signal;HPM_P1;HPM_P2
2023/10/18 00:00:17;;;;;;;29.43;13.53;;;;;;;3.32;100.00;100998.47;5104142;28;20268;-74
2023/10/18 00:02:44;;;;;;;20.10;12.93;;;;;;;3.32;100.00;101002.88;5101111;28;20231;-73
2023/10/18 00:05:11;;;;;;;22.37;12.40;;;;;;;3.30;100.00;100996.78;5104384;28;20246;-74
2023/10/18 00:07:37;;;;;;;29.63;12.10;;;;;;;3.30;100.00;101000.28;5105918;28;20207;-72
2023/10/18 00:10:05;;;;;;;25.40;12.87;;;;;;;3.29;100.00;100995.94;5101292;28;20208;-74
2023/10/18 00:12:34;;;;;;;24.57;14.10;;;;;;;3.25;100.00;101002.19;5103985;28;20204;-73
2023/10/18 00:15:01;;;;;;;15.73;11.60;;;;;;;3.25;100.00;101001.31;5098243;28;20224;-74
2023/10/18 00:17:27;;;;;;;23.37;14.13;;;;;;;3.24;100.00;101008.34;5106236;28;20231;-74
2023/10/18 00:19:55;;;;;;;18.17;12.87;;;;;;;3.23;100.00;101006.63;5102158;28;20204;-74
2023/10/18 00:22:21;;;;;;;19.17;11.97;;;;;;;3.22;100.00;100999.66;5099005;28;20231;-74
2023/10/18 00:24:48;;;;;;;20.97;12.57;;;;;;;3.19;100.00;100993.63;5103959;27;20215;-73
2023/10/18 00:27:14;;;;;;;18.87;12.60;;;;;;;3.18;100.00;100998.00;5104136;28;20674;-74
2023/10/18 00:29:43;;;;;;;21.47;12.33;;;;;;;3.19;100.00;100996.25;5103991;28;20207;-72
2023/10/18 00:32:11;;;;;;;18.07;12.70;;;;;;;3.20;100.00;100992.72;5106497;28;20221;-74
2023/10/18 00:34:37;;;;;;;15.90;12.87;;;;;;;3.20;100.00;100990.94;5102196;28;20240;-74
2023/10/18 00:37:06;;;;;;;18.43;13.47;;;;;;;3.21;100.00;100982.13;5102440;28;20208;-74
2023/10/18 00:39:33;;;;;;;16.57;12.23;;;;;;;3.23;100.00;100985.56;5105597;28;20646;-74
2023/10/18 00:42:23;;;;;;;16.20;12.33;;;;;;;3.24;100.00;100989.91;5101851;28;20234;-74
2023/10/18 00:44:54;;;;;;;16.97;12.93;;;;;;;3.25;100.00;100985.53;5105263;28;20238;-74
2023/10/18 00:47:22;;;;;;;16.43;11.43;;;;;;;3.23;100.00;100982.94;5102985;28;20203;-74
2023/10/18 00:49:52;;;;;;;47.40;13.37;;;;;;;3.24;100.00;100978.53;5106501;28;20576;-74
2023/10/18 00:52:19;;;;;;;38.70;12.20;;;;;;;3.22;100.00;100986.50;5103388;28;20191;-74
2023/10/18 00:54:47;;;;;;;27.17;12.10;;;;;;;3.15;100.00;100979.66;5105559;28;20228;-74
2023/10/18 00:57:14;;;;;;;26.90;11.37;;;;;;;3.09;100.00;100982.47;5099506;28;20203;-74
2023/10/18 00:59:41;;;;;;;27.90;11.53;;;;;;;3.00;100.00;100975.69;5102453;28;20214;-74
2023/10/18 01:02:14;;;;;;;21.00;11.87;;;;;;;2.98;100.00;100971.38;5098935;28;20460;-73
2023/10/18 01:04:41;;;;;;;23.87;11.63;;;;;;;2.95;100.00;100967.06;5102647;28;20276;-74
2023/10/18 01:07:11;;;;;;;17.20;12.17;;;;;;;2.93;100.00;100963.59;5101112;28;20261;-74
2023/10/18 01:09:43;;;;;;;18.70;11.30;;;;;;;2.93;100.00;100966.22;5099485;28;20262;-73
2023/10/18 01:12:09;;;;;;;16.03;11.60;;;;;;;2.92;100.00;100964.50;5103388;28;20200;-74
2023/10/18 01:14:36;;;;;;;20.10;12.40;;;;;;;2.93;100.00;100962.72;5103314;28;20226;-74
2023/10/18 01:17:04;;;;;;;22.43;11.10;;;;;;;2.91;100.00;100954.00;5104589;28;20299;-74
2023/10/18 01:19:32;;;;;;;13.83;9.83;;;;;;;2.88;100.00;100956.72;5103287;28;20211;-73
2023/10/18 01:21:59;;;;;;;25.23;10.60;;;;;;;2.85;100.00;100955.06;5103534;28;20231;-74
2023/10/18 01:24:34;;;;;;;16.50;11.07;;;;;;;2.78;100.00;100954.34;5102938;28;20270;-74
2023/10/18 01:27:01;;;;;;;29.43;10.93;;;;;;;2.75;100.00;100959.69;5101149;28;20202;-75
2023/10/18 01:29:28;;;;;;;22.90;11.77;;;;;;;2.73;100.00;100966.75;5102447;28;20564;-73
2023/10/18 01:31:55;;;;;;;19.50;11.17;;;;;;;2.71;100.00;100965.06;5102812;28;20209;-73
2023/10/18 01:34:22;;;;;;;21.00;12.13;;;;;;;2.69;100.00;100954.56;5106417;28;20228;-73
2023/10/18 01:36:49;;;;;;;19.73;12.63;;;;;;;2.70;100.00;100965.97;5103140;28;20204;-72
2023/10/18 01:39:21;;;;;;;65.73;14.00;;;;;;;2.68;100.00;100963.41;5104600;28;20224;-74
2023/10/18 01:41:50;;;;;;;31.03;11.77;;;;;;;2.68;100.00;100963.41;5102267;28;20280;-72
2023/10/18 01:44:27;;;;;;;67.30;13.87;;;;;;;2.67;100.00;100952.91;5097092;28;20228;-72
2023/10/18 01:46:55;;;;;;;21.67;11.30;;;;;;;2.65;100.00;100947.69;5099115;28;20207;-73
2023/10/18 01:49:24;;;;;;;16.03;11.47;;;;;;;2.65;100.00;100947.69;5102271;28;20195;-73
2023/10/18 01:51:53;;;;;;;29.47;11.30;;;;;;;2.64;100.00;100951.22;5101302;28;20203;-73
2023/10/18 01:54:20;;;;;;;48.60;12.67;;;;;;;2.65;100.00;100950.31;5104434;28;20219;-72
2023/10/18 01:56:47;;;;;;;70.37;14.23;;;;;;;2.65;100.00;100937.19;5103324;28;20690;-74
2023/10/18 01:59:17;;;;;;;76.60;14.50;;;;;;;2.65;100.00;100941.56;5105344;28;20260;-73
2023/10/18 02:01:45;;;;;;;46.60;13.00;;;;;;;2.62;100.00;100932.00;5110877;28;20294;-73
2023/10/18 02:04:23;;;;;;;48.00;13.27;;;;;;;2.60;100.00;100923.28;5103876;27;20215;-74
2023/10/18 02:06:50;;;;;;;45.83;12.63;;;;;;;2.61;100.00;100935.53;5103316;28;20424;-74
2023/10/18 02:09:17;;;;;;;33.20;11.83;;;;;;;2.62;100.00;100932.00;5107888;28;20682;-73
2023/10/18 02:11:43;;;;;;;20.17;11.13;;;;;;;2.63;100.00;100938.97;5110041;28;21306;-73
2023/10/18 02:14:10;;;;;;;37.23;13.07;;;;;;;2.65;100.00;100931.91;5106850;28;20276;-73
2023/10/18 02:16:39;;;;;;;24.77;13.33;;;;;;;2.68;100.00;100925.72;5107825;28;20204;-71
2023/10/18 02:19:06;;;;;;;33.73;13.30;;;;;;;2.69;100.00;100933.53;5108267;28;20203;-74
2023/10/18 02:21:34;;;;;;;69.97;14.20;;;;;;;2.72;100.00;100922.94;5107309;28;20575;-73
2023/10/18 02:24:01;;;;;;;122.60;17.83;;;;;;;2.72;100.00;100919.44;5108821;28;20242;-73
2023/10/18 02:26:34;;;;;;;75.53;14.20;;;;;;;2.72;100.00;100919.44;5105580;28;20699;-72
2023/10/18 02:29:05;;;;;;;65.90;12.93;;;;;;;2.70;100.00;100911.59;5098893;28;20694;-73
2023/10/18 02:31:33;;;;;;;34.00;13.20;;;;;;;2.68;100.00;100908.19;5106810;28;20199;-74
2023/10/18 02:34:03;;;;;;;51.80;14.60;;;;;;;2.69;100.00;100909.00;5105902;28;20230;-72
2023/10/18 02:36:38;;;;;;;59.80;14.83;;;;;;;2.70;100.00;100906.34;5106161;28;20230;-74
2023/10/18 02:39:05;;;;;;;30.97;13.77;;;;;;;2.72;100.00;100907.16;5108057;28;20256;-74
2023/10/18 02:41:34;;;;;;;54.03;14.73;;;;;;;2.74;100.00;100909.75;5101887;28;20210;-73
2023/10/18 02:44:01;;;;;;;52.87;15.93;;;;;;;2.71;100.00;100912.47;5100308;28;20234;-73
2023/10/18 02:46:27;;;;;;;81.03;16.77;;;;;;;2.69;100.00;100907.25;5099825;28;20200;-73
2023/10/18 02:48:55;;;;;;;89.00;18.60;;;;;;;2.69;100.00;100901.13;5104095;28;20272;-72
2023/10/18 02:51:24;;;;;;;46.57;16.67;;;;;;;2.69;100.00;100894.09;5104482;28;20687;-73
2023/10/18 02:53:52;;;;;;;56.00;17.03;;;;;;;2.69;100.00;100890.59;5102500;28;20223;-74
2023/10/18 02:56:20;;;;;;;101.27;18.27;;;;;;;2.70;100.00;100879.19;5100234;28;20199;-71
2023/10/18 02:58:47;;;;;;;42.33;15.27;;;;;;;2.68;100.00;100889.78;5104021;28;20200;-72
2023/10/18 03:01:15;;;;;;;86.53;16.17;;;;;;;2.67;100.00;100888.03;5103682;28;20256;-73
2023/10/18 03:03:46;;;;;;;29.77;14.97;;;;;;;2.66;100.00;100896.84;5103552;27;20259;-73
2023/10/18 03:06:14;;;;;;;25.07;12.90;;;;;;;2.67;100.00;100889.81;5105248;28;20207;-72
2023/10/18 03:08:44;;;;;;;23.23;12.50;;;;;;;2.62;100.00;100889.06;5103018;28;20614;-73
2023/10/18 03:11:11;;;;;;;19.37;12.30;;;;;;;2.58;100.00;100888.28;5102536;28;20206;-74
2023/10/18 03:13:38;;;;;;;28.20;12.53;;;;;;;2.54;100.00;100876.09;5103217;28;20222;-72
2023/10/18 03:16:18;;;;;;;26.90;12.60;;;;;;;2.51;100.00;100876.19;5104802;28;20216;-73
2023/10/18 03:18:45;;;;;;;36.37;13.03;;;;;;;2.46;100.00;100878.09;5101971;28;20245;-73
2023/10/18 03:21:20;;;;;;;23.23;12.43;;;;;;;2.40;100.00;100865.97;5107950;28;20239;-72
2023/10/18 03:23:50;;;;;;;44.90;14.30;;;;;;;2.39;100.00;100881.78;5103393;28;20254;-73
2023/10/18 03:26:21;;;;;;;46.57;13.67;;;;;;;2.37;100.00;100873.06;5102881;28;20217;-73
2023/10/18 03:28:50;;;;;;;32.83;12.57;;;;;;;2.36;100.00;100868.72;5100811;28;20204;-73
2023/10/18 03:31:27;;;;;;;31.43;13.17;;;;;;;2.32;100.00;100865.31;5097398;28;20234;-73
2023/10/18 03:33:59;;;;;;;45.47;13.20;;;;;;;2.30;100.00;100858.38;5103968;28;20225;-72
2023/10/18 03:36:26;;;;;;;24.93;13.77;;;;;;;2.30;100.00;100861.00;5099721;28;20628;-72
2023/10/18 03:39:00;;;;;;;42.20;16.77;;;;;;;2.30;100.00;100867.13;5096389;28;20322;-72
2023/10/18 03:41:32;;;;;;;27.50;15.13;;;;;;;2.31;100.00;100863.59;5101688;28;20208;-72
2023/10/18 03:44:03;;;;;;;161.50;19.70;;;;;;;2.35;100.00;100861.72;5102375;28;20231;-72
2023/10/18 03:46:38;;;;;;;58.77;16.07;;;;;;;2.38;100.00;100859.88;5105638;28;20196;-73
2023/10/18 03:49:08;;;;;;;57.07;15.93;;;;;;;2.40;100.00;100859.84;5101427;28;20231;-74
2023/10/18 03:51:36;;;;;;;60.97;16.20;;;;;;;2.40;100.00;100862.47;5102498;28;20317;-72
2023/10/18 03:54:04;;;;;;;65.67;16.70;;;;;;;2.42;100.00;100855.41;5103949;28;20718;-72
2023/10/18 03:56:36;;;;;;;125.60;19.30;;;;;;;2.43;100.00;100849.25;5105240;28;20235;-73
2023/10/18 03:59:09;;;;;;;121.83;17.47;;;;;;;2.45;100.00;100850.06;5104584;28;20203;-73
2023/10/18 04:01:41;;;;;;;72.83;17.87;;;;;;;2.44;100.00;100848.34;5102197;28;20288;-72
2023/10/18 04:04:17;;;;;;;66.73;16.60;;;;;;;2.44;100.00;100848.34;5100059;27;20231;-73
2023/10/18 04:06:44;;;;;;;183.77;21.07;;;;;;;2.43;100.00;100847.50;5100872;28;20211;-73
2023/10/18 04:09:16;;;;;;;112.83;19.67;;;;;;;2.42;100.00;100844.91;5099396;28;20211;-72
2023/10/18 04:11:43;;;;;;;72.07;17.50;;;;;;;2.40;100.00;100837.06;5101908;28;20227;-73
2023/10/18 04:14:16;;;;;;;115.97;18.20;;;;;;;2.41;100.00;100843.16;5096567;28;20433;-72
2023/10/18 04:16:43;;;;;;;201.17;24.17;;;;;;;2.42;100.00;100839.63;5099056;28;20212;-73
2023/10/18 04:19:10;;;;;;;196.03;22.23;;;;;;;2.42;100.00;100835.25;5099957;28;20208;-73
2023/10/18 04:21:36;;;;;;;223.90;24.67;;;;;;;2.43;100.00;100836.97;5101223;28;20253;-73
2023/10/18 04:24:04;;;;;;;101.03;18.80;;;;;;;2.43;100.00;100841.38;5101264;28;20236;-73
2023/10/18 04:26:32;;;;;;;119.33;20.53;;;;;;;2.43;100.00;100841.38;5101616;28;20742;-73
2023/10/18 04:29:10;;;;;;;26.70;16.37;;;;;;;2.42;100.00;100842.28;5103953;28;20204;-72
2023/10/18 04:31:37;;;;;;;27.47;14.97;;;;;;;2.41;100.00;100830.88;5100647;28;20286;-73
2023/10/18 04:34:06;;;;;;;85.00;18.10;;;;;;;2.44;100.00;100824.69;5100740;28;20725;-73
2023/10/18 04:36:33;;;;;;;32.90;15.90;;;;;;;2.45;100.00;100836.94;5102533;28;20231;-73
2023/10/18 04:39:02;;;;;;;56.13;16.87;;;;;;;2.46;100.00;100836.03;5099137;28;20229;-73
2023/10/18 04:41:31;;;;;;;41.07;15.87;;;;;;;2.47;100.00;100829.00;5100073;28;20208;-73
2023/10/18 04:44:05;;;;;;;117.10;19.93;;;;;;;2.49;100.00;100828.06;5101792;28;20386;-72
2023/10/18 04:46:32;;;;;;;32.23;15.03;;;;;;;2.51;100.00;100828.84;5103011;28;20286;-72
2023/10/18 04:49:16;;;;;;;25.70;15.07;;;;;;;2.53;100.00;100824.44;5106922;28;20200;-73
2023/10/18 04:51:44;;;;;;;53.83;16.37;;;;;;;2.55;100.00;100830.50;5101774;28;20195;-74
2023/10/18 04:54:15;;;;;;;55.73;16.40;;;;;;;2.54;100.00;100825.28;5102313;28;20223;-73
2023/10/18 04:56:44;;;;;;;85.80;16.03;;;;;;;2.51;100.00;100820.16;5099621;28;20683;-73
2023/10/18 04:59:26;;;;;;;28.77;14.57;;;;;;;2.48;100.00;100826.34;5100159;28;20207;-72
2023/10/18 05:01:57;;;;;;;20.27;13.87;;;;;;;2.47;100.00;100824.63;5096302;28;20215;-72
2023/10/18 05:04:24;;;;;;;58.70;16.63;;;;;;;2.48;100.00;100825.47;5100251;28;20251;-73
2023/10/18 05:06:54;;;;;;;50.80;15.77;;;;;;;2.47;100.00;100822.00;5104587;28;20206;-72
2023/10/18 05:09:29;;;;;;;20.40;14.03;;;;;;;2.47;100.00;100821.13;5101812;28;20207;-73
2023/10/18 05:11:57;;;;;;;73.73;15.23;;;;;;;2.47;100.00;100805.34;5105174;28;20207;-73
2023/10/18 05:14:40;;;;;;;21.53;13.57;;;;;;;2.44;100.00;100807.16;5100817;28;20257;-73
2023/10/18 05:17:10;;;;;;;49.10;14.37;;;;;;;2.42;100.00;100801.06;5101936;28;20203;-73
2023/10/18 05:19:41;;;;;;;28.53;15.40;;;;;;;2.43;100.00;100794.06;5103081;28;20685;-73
2023/10/18 05:22:08;;;;;;;57.10;15.47;;;;;;;2.39;100.00;100790.63;5104286;28;20226;-73
2023/10/18 05:24:37;;;;;;;60.30;15.67;;;;;;;2.35;100.00;100790.75;5102619;28;20784;-72
2023/10/18 05:27:05;;;;;;;36.70;15.70;;;;;;;2.34;100.00;100794.28;5096138;28;20203;-72
2023/10/18 05:29:43;;;;;;;101.30;16.47;;;;;;;2.34;100.00;100789.91;5101405;28;20231;-72
2023/10/18 05:32:09;;;;;;;62.03;15.93;;;;;;;2.34;100.00;100789.91;5100634;27;20207;-72
2023/10/18 05:34:50;;;;;;;50.00;15.20;;;;;;;2.33;100.00;100785.53;5102588;28;20223;-74
2023/10/18 05:37:19;;;;;;;45.27;16.03;;;;;;;2.36;100.00;100792.47;5100477;28;20230;-76
2023/10/18 05:40:42;;;;;;;90.13;18.40;;;;;;;2.32;100.00;100789.09;5100448;28;20207;-72
2023/10/18 05:42:46;;;;;;;58.97;15.50;;;;;;;2.34;100.00;100792.53;5097882;28;20211;-71
2023/10/18 05:45:14;;;;;;;28.73;14.70;;;;;;;2.31;100.00;100790.00;5099920;28;20235;-73
2023/10/18 05:47:42;;;;;;;51.73;16.27;;;;;;;2.32;100.00;100785.63;5103566;28;20200;-72
2023/10/18 05:50:12;;;;;;;41.83;14.80;;;;;;;2.30;100.00;100779.53;5103876;28;20214;-73
2023/10/18 05:52:39;;;;;;;57.13;15.80;;;;;;;2.31;100.00;100784.75;5107030;28;20585;-73
2023/10/18 05:55:09;;;;;;;44.63;15.73;;;;;;;2.32;100.00;100777.72;5104997;28;20219;-72
2023/10/18 05:57:35;;;;;;;35.47;15.47;;;;;;;2.34;100.00;100776.75;5103295;28;20588;-73
2023/10/18 06:00:15;;;;;;;52.10;15.70;;;;;;;2.34;100.00;100779.38;5106576;28;20215;-71
2023/10/18 06:02:43;;;;;;;50.17;17.27;;;;;;;2.34;100.00;100779.38;5100000;28;20348;-72
2023/10/18 06:05:10;;;;;;;46.13;14.57;;;;;;;2.30;100.00;100776.91;5107545;27;20235;-73
2023/10/18 06:07:36;;;;;;;45.50;15.00;;;;;;;2.26;100.00;100768.25;5105239;28;20223;-73
2023/10/18 06:10:13;;;;;;;34.87;15.20;;;;;;;2.24;100.00;100769.19;5102785;28;20215;-72
2023/10/18 06:12:41;;;;;;;41.10;14.50;;;;;;;2.22;100.00;100763.97;5108278;28;20359;-72
2023/10/18 06:15:11;;;;;;;31.03;13.73;;;;;;;2.19;100.00;100769.28;5103267;28;20216;-73
2023/10/18 06:17:46;;;;;;;28.03;13.63;;;;;;;2.18;100.00;100754.44;5107433;28;20317;-72
2023/10/18 06:20:23;;;;;;;76.57;16.30;;;;;;;2.20;100.00;100754.41;5106792;28;20210;-70
2023/10/18 06:22:50;;;;;;;34.23;14.50;;;;;;;2.20;100.00;100760.50;5108785;28;20195;-73
2023/10/18 06:25:26;;;;;;;49.73;14.73;;;;;;;2.19;100.00;100760.56;5103843;28;20227;-73
2023/10/18 06:27:53;;;;;;;90.83;17.33;;;;;;;2.16;100.00;100748.34;5104997;28;20256;-72
2023/10/18 06:30:19;;;;;;;52.73;17.03;;;;;;;2.16;100.00;100747.50;5104032;28;20280;-74
2023/10/18 06:32:46;;;;;;;39.27;14.80;;;;;;;2.17;100.00;100751.84;5103835;28;20203;-75
2023/10/18 06:35:17;;;;;;;47.13;13.07;;;;;;;2.18;100.00;100751.81;5105456;28;20237;-72
2023/10/18 06:37:44;;;;;;;54.23;14.20;;;;;;;2.14;100.00;100747.56;5107026;28;20201;-72
2023/10/18 06:40:21;;;;;;;39.10;14.33;;;;;;;2.13;100.00;100739.72;5106450;28;20203;-72
2023/10/18 06:42:48;;;;;;;35.43;14.33;;;;;;;2.09;100.00;100739.81;5099894;28;20298;-72
2023/10/18 06:45:18;;;;;;;34.40;13.33;;;;;;;2.07;100.00;100741.59;5100672;28;20227;-72
2023/10/18 06:47:45;;;;;;;21.40;13.20;;;;;;;2.05;100.00;100743.41;5104858;28;20265;-72
2023/10/18 06:50:13;;;;;;;36.93;13.53;;;;;;;2.05;100.00;100740.78;5103551;28;20662;-72
2023/10/18 06:52:44;;;;;;;31.80;14.33;;;;;;;2.00;100.00;100745.28;5104538;28;20200;-73
2023/10/18 06:55:15;;;;;;;24.63;14.20;;;;;;;2.02;100.00;100740.84;5106175;28;20223;-73
2023/10/18 06:57:43;;;;;;;32.03;14.87;;;;;;;2.00;100.00;100741.78;5098757;28;20200;-72
2023/10/18 07:00:12;;;;;;;27.40;14.30;;;;;;;2.00;100.00;100744.41;5102562;28;20203;-72
2023/10/18 07:02:38;;;;;;;30.20;15.80;;;;;;;2.01;100.00;100748.78;5105043;28;20733;-73
2023/10/18 07:05:08;;;;;;;31.77;16.17;;;;;;;1.96;100.00;100745.44;5107629;27;20231;-72
2023/10/18 07:07:34;;;;;;;26.50;13.67;;;;;;;1.95;100.00;100746.34;5102913;28;20291;-71
2023/10/18 07:10:04;;;;;;;23.70;13.47;;;;;;;1.95;100.00;100749.81;5100419;28;20219;-71
2023/10/18 07:12:44;;;;;;;28.07;14.77;;;;;;;1.98;100.00;100747.09;5104623;28;20591;-73
2023/10/18 07:15:16;;;;;;;21.10;13.83;;;;;;;2.01;100.00;100757.50;5095166;28;20806;-73
2023/10/18 07:17:42;;;;;;;25.90;14.30;;;;;;;2.05;100.00;100745.16;5107136;28;20282;-72
2023/10/18 07:20:15;;;;;;;22.50;14.57;;;;;;;2.11;100.00;100741.53;5101616;28;20199;-72
2023/10/18 07:22:44;;;;;;;23.57;14.97;;;;;;;2.13;100.00;100743.22;5102288;28;20619;-72
2023/10/18 07:25:19;;;;;;;26.03;14.87;;;;;;;2.14;100.00;100723.91;5103390;28;20242;-74
2023/10/18 07:27:46;;;;;;;27.93;15.40;;;;;;;2.20;100.00;100721.09;5102793;28;20256;-73
2023/10/18 07:30:15;;;;;;;26.03;15.17;;;;;;;2.25;100.00;100716.59;5108219;28;20211;-72
2023/10/18 07:32:44;;;;;;;26.53;15.17;;;;;;;2.31;100.00;100718.19;5104363;28;20203;-72
2023/10/18 07:35:12;;;;;;;39.60;16.53;;;;;;;2.38;100.00;100711.84;5106390;28;20255;-72
2023/10/18 07:37:43;;;;;;;31.80;14.80;;;;;;;2.38;100.00;100710.06;5102481;28;20200;-74
2023/10/18 07:40:19;;;;;;;26.13;15.70;;;;;;;2.42;100.00;100713.47;5102376;28;20215;-71
2023/10/18 07:42:49;;;;;;;30.83;15.73;;;;;;;2.46;100.00;100709.84;5104176;28;20211;-72
2023/10/18 07:45:16;;;;;;;33.80;17.00;;;;;;;2.51;100.00;100712.34;5071747;22;20323;-82
2023/10/18 07:47:43;;;;;;;29.27;14.53;;;;;;;2.56;100.00;100705.19;5064135;27;20208;-81
2023/10/18 07:52:54;;;;;;;27.47;16.10;;;;;;;2.61;100.00;100701.50;5050119;27;20227;-81
2023/10/18 07:55:22;;;;;;;27.20;15.20;;;;;;;2.68;100.00;100691.69;5053955;27;20212;-83
2023/10/18 07:57:49;;;;;;;29.77;16.50;;;;;;;2.74;100.00;100688.84;5069640;27;20658;-82
2023/10/18 08:00:22;;;;;;;29.57;17.00;;;;;;;2.82;100.00;100693.88;5053709;27;20205;-82
2023/10/18 08:02:47;;;;;;;27.67;15.77;;;;;;;2.89;100.00;100687.50;5063071;27;21566;-82
2023/10/18 08:05:18;;;;;;;31.00;17.93;;;;;;;3.00;100.00;100685.41;5077669;27;20278;-82
2023/10/18 08:07:50;;;;;;;32.83;18.33;;;;;;;3.14;100.00;100688.47;5071818;27;20198;-82
2023/10/18 08:10:19;;;;;;;36.07;19.60;;;;;;;3.26;100.00;100674.91;5070144;27;20274;-82
2023/10/18 08:12:49;;;;;;;37.17;20.00;;;;;;;3.41;100.00;100671.75;5081098;27;20202;-82
2023/10/18 08:15:17;;;;;;;32.40;18.53;;;;;;;3.58;100.00;100665.06;5059396;27;20293;-82
2023/10/18 08:17:44;;;;;;;31.83;18.20;;;;;;;3.70;100.00;100670.78;5072486;27;20198;-82
2023/10/18 08:23:04;;;;;;;36.47;19.70;;;;;;;3.93;100.00;100663.84;5102084;27;20342;-83
2023/10/18 08:25:31;;;;;;;30.43;17.77;;;;;;;4.06;100.00;100667.75;5064912;27;20252;-83
2023/10/18 08:28:01;;;;;;;34.80;18.23;;;;;;;4.12;100.00;100665.72;5071594;27;20213;-83
2023/10/18 08:30:38;;;;;;;30.43;15.83;;;;;;;4.18;100.00;100660.25;5064783;27;20233;-83
2023/10/18 08:33:05;;;;;;;31.27;18.40;;;;;;;4.26;100.00;100656.47;5099167;27;20233;-83
2023/10/18 08:35:33;;;;;;;28.70;17.40;;;;;;;4.37;100.00;100646.38;5076917;27;20199;-83
2023/10/18 08:38:01;;;;;;;31.03;16.20;;;;;;;4.49;100.00;100645.88;5084516;27;20213;-81
2023/10/18 08:40:36;;;;;;;26.93;16.87;;;;;;;4.57;100.00;100635.91;5064216;27;20885;-82
2023/10/18 08:43:12;;;;;;;25.40;15.77;;;;;;;4.68;100.00;100632.84;5073606;27;20215;-83
2023/10/18 08:45:45;;;;;;;30.10;16.87;;;;;;;4.77;100.00;100635.13;5061947;27;20607;-83
2023/10/18 08:48:17;;;;;;;27.60;16.07;;;;;;;4.90;100.00;100639.00;5056453;27;20269;-83
2023/10/18 08:50:48;;;;;;;27.90;17.17;;;;;;;5.00;100.00;100627.16;5062781;27;20294;-84
2023/10/18 08:53:16;;;;;;;22.53;14.70;;;;;;;5.11;100.00;100626.72;5085840;27;20210;-84
2023/10/18 08:55:51;;;;;;;24.93;15.33;;;;;;;5.18;100.00;100628.19;5051029;27;20786;-83
2023/10/18 08:58:22;;;;;;;23.47;14.67;;;;;;;5.30;100.00;100622.38;5046143;27;20581;-83
2023/10/18 09:01:05;;;;;;;24.83;16.13;;;;;;;5.37;100.00;100615.06;5052737;27;20222;-84
2023/10/18 09:03:32;;;;;;;23.70;16.00;;;;;;;5.47;100.00;100609.31;5071340;27;20296;-84
2023/10/18 09:06:04;;;;;;;27.37;15.33;;;;;;;5.57;100.00;100608.00;5064494;27;20224;-83
2023/10/18 09:08:35;;;;;;;23.40;14.63;;;;;;;5.73;100.00;100607.34;5065584;27;20304;-84
2023/10/18 09:11:04;;;;;;;24.87;14.80;;;;;;;5.86;100.00;100611.16;5058235;27;20247;-83
2023/10/18 09:13:41;;;;;;;25.20;15.33;;;;;;;5.92;100.00;100609.09;5083792;27;20202;-84
2023/10/18 09:16:11;;;;;;;25.67;16.07;;;;;;;6.03;100.00;100615.72;5080291;27;20201;-83
2023/10/18 09:18:38;;;;;;;22.63;15.80;;;;;;;6.15;100.00;100601.94;5087948;27;20673;-83
2023/10/18 09:21:09;;;;;;;23.33;14.97;;;;;;;6.28;100.00;100603.06;5074264;27;20573;-83
2023/10/18 09:23:36;;;;;;;22.63;15.90;;;;;;;6.38;100.00;100601.72;5088345;27;20229;-83
2023/10/18 09:26:10;;;;;;;24.37;15.37;;;;;;;6.51;100.00;100596.72;5076765;27;20225;-83
2023/10/18 09:28:39;;;;;;;21.87;14.37;;;;;;;6.67;100.00;100584.47;5072431;27;20266;-83
2023/10/18 09:31:11;;;;;;;22.43;15.13;;;;;;;6.78;100.00;100600.69;5098882;27;20229;-84
2023/10/18 09:33:39;;;;;;;19.73;14.60;;;;;;;6.90;100.00;100591.28;5059842;27;20223;-82
2023/10/18 09:36:19;;;;;;;24.53;15.43;;;;;;;7.01;100.00;100585.44;5060934;27;20214;-83
2023/10/18 09:38:47;;;;;;;18.80;13.20;;;;;;;7.08;100.00;100592.16;5066558;27;20217;-83
2023/10/18 09:41:14;;;;;;;21.30;14.37;;;;;;;7.11;100.00;100584.06;5078430;27;20666;-82
2023/10/18 09:43:41;;;;;;;23.13;14.40;;;;;;;7.14;100.00;100578.63;5065488;27;20211;-83
2023/10/18 09:46:10;;;;;;;21.07;14.27;;;;;;;7.12;99.00;100573.41;5057188;27;20216;-83
2023/10/18 09:48:41;;;;;;;21.37;13.90;;;;;;;7.19;100.00;100577.44;5080207;27;20206;-83
2023/10/18 09:51:09;;;;;;;21.53;13.60;;;;;;;7.26;99.49;100572.69;5069218;27;20226;-84
2023/10/18 09:53:41;;;;;;;18.17;13.60;;;;;;;7.30;99.50;100580.44;5070860;27;20205;-83
2023/10/18 09:56:09;;;;;;;23.80;14.27;;;;;;;7.39;100.00;100568.47;5050056;27;20197;-83
2023/10/18 09:58:42;;;;;;;22.30;14.23;;;;;;;7.48;98.83;100564.53;5082551;27;20229;-83
2023/10/18 10:01:25;;;;;;;18.53;13.80;;;;;;;7.49;97.89;100563.59;5062284;27;20684;-82
2023/10/18 10:03:56;;;;;;;20.10;14.70;;;;;;;7.49;97.82;100558.28;5078948;27;20194;-82
2023/10/18 10:06:23;;;;;;;18.73;13.93;;;;;;;7.54;97.15;100553.56;5094338;27;20282;-83
2023/10/18 10:08:55;;;;;;;16.97;12.80;;;;;;;7.58;95.74;100561.28;5049823;27;20202;-83
2023/10/18 10:11:29;;;;;;;17.07;12.30;;;;;;;7.55;94.44;100558.81;5061045;27;20226;-82
2023/10/18 10:14:00;;;;;;;18.10;12.50;;;;;;;7.53;93.39;100559.81;5049604;28;20193;-83
2023/10/18 10:16:31;;;;;;;20.57;13.23;;;;;;;7.54;93.83;100556.22;5088433;27;20254;-82
2023/10/18 10:19:04;;;;;;;18.43;12.90;;;;;;;7.57;94.19;100550.78;5063085;27;20201;-83
2023/10/18 10:21:33;;;;;;;19.57;12.60;;;;;;;7.62;93.40;100544.31;5048097;27;20226;-83
2023/10/18 10:24:06;;;;;;;16.13;12.10;;;;;;;7.68;92.39;100542.28;5054790;27;20216;-83
2023/10/18 10:26:36;;;;;;;17.87;13.57;;;;;;;7.71;92.27;100542.09;5084532;27;20261;-83
2023/10/18 10:31:55;;;;;;;17.53;11.97;;;;;;;7.80;90.77;100531.00;5085128;27;20735;-83
2023/10/18 10:34:32;;;;;;;16.00;11.50;;;;;;;7.85;90.93;100529.81;5076713;27;20206;-83
2023/10/18 10:37:07;;;;;;;14.80;11.50;;;;;;;7.91;90.97;100518.88;5094957;27;20480;-83
2023/10/18 10:39:37;;;;;;;18.60;11.90;;;;;;;7.97;90.71;100526.50;5046029;27;20202;-83
2023/10/18 10:42:09;;;;;;;15.77;12.30;;;;;;;8.03;90.83;100517.38;5100327;27;20609;-82
2023/10/18 10:44:57;;;;;;;14.60;11.40;;;;;;;8.07;90.00;100512.72;5044814;27;20658;-82
2023/10/18 10:47:32;;;;;;;15.67;11.60;;;;;;;8.11;88.54;100499.22;5072563;27;20224;-82
2023/10/18 10:50:00;;;;;;;15.90;10.50;;;;;;;8.19;89.49;100498.78;5104126;27;20201;-82
2023/10/18 10:52:29;;;;;;;15.13;11.93;;;;;;;8.25;89.84;100493.97;5060636;27;20257;-82
2023/10/18 10:55:04;;;;;;;14.83;10.97;;;;;;;8.30;87.84;100489.28;5077431;27;20198;-82
2023/10/18 10:57:35;;;;;;;13.10;10.20;;;;;;;8.30;87.62;100491.09;5085012;27;20210;-82
2023/10/18 11:00:11;;;;;;;16.73;11.00;;;;;;;8.32;87.23;100479.47;5063124;27;20254;-82
2023/10/18 11:02:53;;;;;;;14.10;10.90;;;;;;;8.35;86.20;100475.78;5071264;27;20216;-82
2023/10/18 11:05:24;;;;;;;13.30;10.37;;;;;;;8.40;86.35;100478.19;5071660;27;20222;-82
2023/10/18 11:07:52;;;;;;;13.60;10.70;;;;;;;8.43;86.93;100470.88;5066055;27;20235;-83
2023/10/18 11:10:19;;;;;;;13.53;10.53;;;;;;;8.50;87.01;100466.09;5048409;27;20558;-83
2023/10/18 11:12:53;;;;;;;12.77;9.97;;;;;;;8.49;85.45;100456.41;5049955;27;20302;-83
2023/10/18 11:15:27;;;;;;;14.53;10.47;;;;;;;8.55;86.67;100453.44;5089642;27;20201;-83
2023/10/18 11:18:17;;;;;;;14.03;10.00;;;;;;;8.55;84.16;100445.47;5105222;27;20209;-82
2023/10/18 11:20:50;;;;;;;12.00;9.53;;;;;;;8.59;83.76;100442.53;5076430;27;20236;-83
2023/10/18 11:23:17;;;;;;;13.10;10.00;;;;;;;8.60;83.90;100430.09;5088793;27;20198;-82
2023/10/18 11:25:51;;;;;;;15.53;9.90;;;;;;;8.63;83.29;100435.22;5092312;27;20218;-83
2023/10/18 11:28:37;;;;;;;12.80;9.83;;;;;;;8.65;82.76;100428.91;5080658;27;20202;-83
2023/10/18 11:36:49;;;;;;;14.30;10.50;;;;;;;8.68;83.23;100412.78;4989950;28;20220;-82